Hitomimaru — JD4014 — position and weather

sailwx.info

Track history (hours):
 
Tides and Currents Weather Stations Pressure Air Temp Water Temp Dewpoint Dewpoint Depression Visibility Wind Speed Wind Dir Waves Ship Positions

Hitomimaru

Last reported at 2018-Jul-22 05:13 UTC. Time now 2018-Jul-22 08:27 UTC.
Position N 35°22' E 139°54'.

Length 35 m; draft 3.9 m.

Type: Tug. MMSI: 431007965.

Date/timePositionNaut miles runAvg speedWind from/ knotsBaromVisibWave heightAir tempDewpointWater temp
2018-Jul-22 05:13N 35°22' E 139°54'1 5.6
2018-Jul-22 05:00N 35°22' E 139°53'3 6.7
2018-Jul-22 04:31N 35°21' E 139°49'0 0.6
2018-Jul-22 04:00N 35°20' E 139°49'0 0.3
2018-Jul-22 03:30N 35°20' E 139°49'0 0.0
2018-Jul-22 03:01N 35°20' E 139°49'0 0.1
2018-Jul-22 02:30N 35°20' E 139°49'0 0.6
2018-Jul-22 02:00N 35°21' E 139°49'0 0.1
2018-Jul-22 01:30N 35°21' E 139°49'0 0.5
2018-Jul-22 01:00N 35°20' E 139°49'0 0.5
2018-Jul-22 00:30N 35°20' E 139°49'0 0.7
2018-Jul-22 00:00N 35°21' E 139°49'0 0.5
2018-Jul-21 23:30N 35°20' E 139°49'0 0.1
2018-Jul-21 23:00N 35°20' E 139°49'0 0.2
2018-Jul-21 22:31N 35°20' E 139°49'1 1.1
2018-Jul-21 22:00N 35°21' E 139°49'1 1.0
2018-Jul-21 21:30N 35°20' E 139°49'0 0.3
2018-Jul-21 21:00N 35°20' E 139°49'0 0.3
2018-Jul-21 20:30N 35°20' E 139°49'0 0.2
2018-Jul-21 20:00N 35°20' E 139°49'0 0.2
2018-Jul-21 19:30N 35°20' E 139°49'0 0.0
2018-Jul-21 19:00N 35°20' E 139°49'0 0.0
2018-Jul-21 18:30N 35°20' E 139°49'0 0.0
2018-Jul-21 18:01N 35°20' E 139°49'0 0.0
2018-Jul-21 17:30N 35°20' E 139°49'0 0.0
2018-Jul-21 17:01N 35°20' E 139°49'0 0.0
2018-Jul-21 16:30N 35°20' E 139°49'0 0.0
2018-Jul-21 16:01N 35°20' E 139°49'0 0.0
2018-Jul-21 15:31N 35°20' E 139°49'0 0.0
2018-Jul-21 15:01N 35°20' E 139°49'0 0.0
2018-Jul-21 14:30N 35°20' E 139°49'0 0.0
2018-Jul-21 13:30N 35°20' E 139°49'0 0.0
2018-Jul-21 13:01N 35°20' E 139°49'0 0.1
2018-Jul-21 12:30N 35°20' E 139°49'0 0.2
2018-Jul-21 12:00N 35°20' E 139°49'0 0.5
2018-Jul-21 11:31N 35°20' E 139°49'0 0.1
2018-Jul-21 11:00N 35°20' E 139°49'0 0.2
2018-Jul-21 10:30N 35°20' E 139°49'0 0.4
2018-Jul-21 10:00N 35°20' E 139°49'0 0.3
2018-Jul-21 09:30N 35°20' E 139°49'0 0.0
2018-Jul-21 09:00N 35°20' E 139°49'0 0.2
2018-Jul-21 08:30N 35°20' E 139°49'0 0.3
2018-Jul-21 08:01N 35°20' E 139°49'0 0.2
2018-Jul-21 07:30N 35°20' E 139°49'0 0.2
2018-Jul-21 07:00N 35°20' E 139°49'0 0.2
2018-Jul-21 06:30N 35°20' E 139°49'1 1.1
2018-Jul-21 06:00N 35°21' E 139°49'0 1.0
2018-Jul-21 05:30N 35°20' E 139°49'0 0.1
2018-Jul-21 05:00N 35°20' E 139°49'0 0.2
2018-Jul-21 04:30N 35°20' E 139°49'0 0.5
2018-Jul-21 04:00N 35°20' E 139°49'0 0.2
2018-Jul-21 03:30N 35°20' E 139°49'0 0.5
2018-Jul-21 03:00N 35°20' E 139°49'1 2.9
2018-Jul-21 02:30N 35°22' E 139°49'4 1.1
2018-Jul-20 22:40N 35°22' E 139°54'0 0.3
2018-Jul-20 22:30N 35°22' E 139°54'0 0.0
2018-Jul-20 22:00N 35°22' E 139°54'0 0.0
2018-Jul-20 21:30N 35°22' E 139°54'0 0.0
2018-Jul-20 20:59N 35°22' E 139°54'0 0.0
2018-Jul-20 20:30N 35°22' E 139°54'0 0.0
2018-Jul-20 20:01N 35°22' E 139°54'0 0.0
2018-Jul-20 19:30N 35°22' E 139°54'0 0.0
2018-Jul-20 18:59N 35°22' E 139°54'0 0.0
2018-Jul-20 18:30N 35°22' E 139°54'0 0.0
2018-Jul-20 18:01N 35°22' E 139°54'0 0.0
2018-Jul-20 17:29N 35°22' E 139°54'0 0.0
2018-Jul-20 17:01N 35°22' E 139°54'0 0.0
2018-Jul-20 16:30N 35°22' E 139°54'0 0.0
2018-Jul-20 16:00N 35°22' E 139°54'0 0.0
2018-Jul-20 15:30N 35°22' E 139°54'0 0.0
2018-Jul-20 14:59N 35°22' E 139°54'0 0.0
2018-Jul-20 14:28N 35°22' E 139°54'0 0.0
2018-Jul-20 13:59N 35°22' E 139°54'0 0.0
2018-Jul-20 13:30N 35°22' E 139°54'0 0.0
2018-Jul-20 12:55N 35°22' E 139°54'0 0.0
2018-Jul-20 12:30N 35°22' E 139°54'0 0.0
2018-Jul-20 12:00N 35°22' E 139°54'0 0.0
2018-Jul-20 11:30N 35°22' E 139°54'0 0.0
2018-Jul-20 10:59N 35°22' E 139°54'0 0.0
2018-Jul-20 10:27N 35°22' E 139°54'0 0.0
2018-Jul-20 09:56N 35°22' E 139°54'0 0.0
2018-Jul-20 09:30N 35°22' E 139°54'0 0.0
2018-Jul-20 08:59N 35°22' E 139°54'0 0.0
2018-Jul-20 08:29N 35°22' E 139°54'0 0.0
2018-Jul-20 08:00N 35°22' E 139°54'0 0.0
2018-Jul-20 07:30N 35°22' E 139°54'0 0.0
2018-Jul-20 04:02N 35°22' E 139°54'0 0.0
2018-Jul-20 03:36N 35°22' E 139°54'0 0.0
2018-Jul-20 03:24N 35°22' E 139°54'0 0.0
2018-Jul-20 02:59N 35°22' E 139°54'0 0.0
2018-Jul-20 02:29N 35°22' E 139°54'0 0.0
2018-Jul-20 01:56N 35°22' E 139°54'0 0.0
2018-Jul-20 01:30N 35°22' E 139°54'0 0.0
2018-Jul-20 00:59N 35°22' E 139°54'0 0.0
2018-Jul-20 00:29N 35°22' E 139°54'0 0.0
2018-Jul-20 00:00N 35°22' E 139°54'0 0.0
2018-Jul-19 23:31N 35°22' E 139°54'3 5.8
2018-Jul-19 23:00N 35°22' E 139°50'1 1.3
2018-Jul-19 22:30N 35°21' E 139°51'1 2.2
2018-Jul-19 22:00N 35°22' E 139°50'0 0.0
2018-Jul-19 21:30N 35°22' E 139°50'3 5.2
2018-Jul-19 20:54N 35°22' E 139°54'0 0.0
2018-Jul-19 20:30N 35°22' E 139°54'0 0.0
2018-Jul-19 19:59N 35°22' E 139°54'0 0.0
2018-Jul-19 16:40N 35°22' E 139°54'0 0.0
2018-Jul-19 16:26N 35°22' E 139°54'2 3.8
2018-Jul-19 16:00N 35°22' E 139°52'0 0.1
2018-Jul-19 15:30N 35°22' E 139°52'0 0.9
2018-Jul-19 14:58N 35°22' E 139°51'2 4.2
2018-Jul-19 14:30N 35°23' E 139°49'1 0.8
2018-Jul-19 13:30N 35°24' E 139°50'2 4.6
2018-Jul-19 13:01N 35°22' E 139°52'0 0.4
2018-Jul-19 12:30N 35°22' E 139°52'2 0.2
2018-Jul-19 04:23N 35°22' E 139°54'0 0.0
2018-Jul-19 03:58N 35°22' E 139°54'0 0.0
2018-Jul-19 03:30N 35°22' E 139°54'0 0.0
2018-Jul-18 15:57N 35°22' E 139°54'0 0.0
2018-Jul-18 15:28N 35°22' E 139°54'0 0.0
2018-Jul-18 05:17N 35°22' E 139°54'3 8.7
2018-Jul-18 04:59N 35°23' E 139°51'510.5
2018-Jul-18 04:30N 35°28' E 139°54'611.4
2018-Jul-18 04:00N 35°29' E 140°00'0 0.3
2018-Jul-18 03:17N 35°29' E 140°01'1 0.3
2018-Jul-18 00:55N 35°29' E 139°60'1 1.1
2018-Jul-18 00:11N 35°29' E 140°01'3 3.3
2018-Jul-17 23:25N 35°29' E 139°58'2 1.6
2018-Jul-17 22:13N 35°27' E 139°58'0 0.3
2018-Jul-17 21:14N 35°27' E 139°58'1 5.2
2018-Jul-17 20:58N 35°29' E 139°58'1 2.2
2018-Jul-17 20:30N 35°29' E 139°56'1 1.0
2018-Jul-17 19:56N 35°29' E 139°56'4 9.0
2018-Jul-17 19:30N 35°26' E 139°52'5 0.3
2018-Jul-17 03:56N 35°22' E 139°54'1 2.4
2018-Jul-17 03:29N 35°22' E 139°53'0 0.0
2018-Jul-16 23:30N 35°22' E 139°53'0 0.0
2018-Jul-16 19:54N 35°22' E 139°53'0 0.0
2018-Jul-16 19:27N 35°22' E 139°53'1 1.2
2018-Jul-16 19:00N 35°22' E 139°53'0 0.3
2018-Jul-16 18:30N 35°22' E 139°53'0 0.1
2018-Jul-16 15:17N 35°21' E 139°54'0 0.0
2018-Jul-16 14:45N 35°21' E 139°54'0 0.0
2018-Jul-16 13:34N 35°21' E 139°54'0 0.0
2018-Jul-16 13:26N 35°21' E 139°54'0 0.0
2018-Jul-16 13:00N 35°21' E 139°54'0 0.0
2018-Jul-16 12:25N 35°21' E 139°54'0 0.0
2018-Jul-16 12:00N 35°21' E 139°54'0 0.0
2018-Jul-16 11:29N 35°21' E 139°54'0 0.0
2018-Jul-16 11:00N 35°21' E 139°54'0 0.0
2018-Jul-16 10:31N 35°21' E 139°54'0 0.0
2018-Jul-16 10:01N 35°21' E 139°54'0 0.0
2018-Jul-16 09:30N 35°21' E 139°54'0 0.0
2018-Jul-16 09:00N 35°21' E 139°54'0 0.0
2018-Jul-16 08:30N 35°21' E 139°54'0 0.0
2018-Jul-16 08:00N 35°21' E 139°54'0 0.0
2018-Jul-16 07:14N 35°21' E 139°54'0 0.0
2018-Jul-16 06:48N 35°21' E 139°54'1 3.2
2018-Jul-16 06:29N 35°22' E 139°53'2 5.2
2018-Jul-16 06:00N 35°22' E 139°50'1 2.9
2018-Jul-16 05:30N 35°21' E 139°49'0 0.1
2018-Jul-16 05:00N 35°21' E 139°49'0 0.2
2018-Jul-16 04:30N 35°21' E 139°49'1 2.3
2018-Jul-16 04:00N 35°22' E 139°49'2 4.2
2018-Jul-16 03:30N 35°23' E 139°47'1 2.4
2018-Jul-16 03:00N 35°22' E 139°46'510.4
2018-Jul-16 02:30N 35°22' E 139°52'1 0.1
2018-Jul-15 16:15N 35°22' E 139°54'0 0.0
2018-Jul-15 15:59N 35°22' E 139°54'0 0.0
2018-Jul-15 06:45N 35°22' E 139°54'0 0.0
2018-Jul-15 06:10N 35°22' E 139°54'0 0.0
2018-Jul-15 05:55N 35°22' E 139°54'0 0.0
2018-Jul-15 05:25N 35°22' E 139°54'0 0.0
2018-Jul-15 05:00N 35°22' E 139°54'0 0.0
2018-Jul-15 04:30N 35°22' E 139°54'3 4.9
2018-Jul-15 03:58N 35°23' E 139°51'2 5.3
2018-Jul-15 03:30N 35°21' E 139°49'0 0.2
2018-Jul-15 03:00N 35°21' E 139°49'0 0.6
2018-Jul-15 02:30N 35°21' E 139°49'0 0.2
2018-Jul-15 02:00N 35°21' E 139°49'0 0.3
2018-Jul-15 01:30N 35°21' E 139°49'0 0.4
2018-Jul-15 01:00N 35°21' E 139°49'0 0.1
2018-Jul-15 00:30N 35°21' E 139°49'0 0.1
2018-Jul-15 00:00N 35°21' E 139°49'0 0.7
2018-Jul-14 23:30N 35°20' E 139°49'0 0.7
2018-Jul-14 23:01N 35°21' E 139°49'0 0.1
2018-Jul-14 22:30N 35°21' E 139°49'0 0.0
2018-Jul-14 22:00N 35°21' E 139°49'0 0.3
2018-Jul-14 21:30N 35°20' E 139°49'0 0.1
2018-Jul-14 21:00N 35°21' E 139°49'0 0.1
2018-Jul-14 20:30N 35°21' E 139°49'0 0.2
2018-Jul-14 19:59N 35°21' E 139°49'0 0.3
2018-Jul-14 19:30N 35°20' E 139°49'0 0.0
2018-Jul-14 19:00N 35°20' E 139°49'0 0.0
2018-Jul-14 18:30N 35°20' E 139°49'0 0.0
2018-Jul-14 18:00N 35°20' E 139°49'0 0.0
2018-Jul-14 17:30N 35°20' E 139°49'0 0.0
2018-Jul-14 17:00N 35°20' E 139°49'0 0.1
2018-Jul-14 16:30N 35°20' E 139°49'0 0.0
2018-Jul-14 15:59N 35°20' E 139°49'0 0.0
2018-Jul-14 15:30N 35°20' E 139°49'0 0.0
2018-Jul-14 15:00N 35°20' E 139°49'0 0.0
2018-Jul-14 14:30N 35°20' E 139°49'0 0.0
2018-Jul-14 13:30N 35°20' E 139°49'0 0.7
2018-Jul-14 13:00N 35°21' E 139°49'0 0.2
2018-Jul-14 12:30N 35°21' E 139°49'0 0.2
2018-Jul-14 12:00N 35°21' E 139°49'0 0.0
2018-Jul-14 11:30N 35°21' E 139°49'0 0.2
2018-Jul-14 11:00N 35°21' E 139°49'0 0.1
2018-Jul-14 10:30N 35°21' E 139°49'0 0.3
2018-Jul-14 10:00N 35°21' E 139°49'0 0.3
2018-Jul-14 09:30N 35°20' E 139°49'0 0.2
2018-Jul-14 08:59N 35°20' E 139°49'0 0.7
2018-Jul-14 08:30N 35°21' E 139°49'0 0.2
2018-Jul-14 08:00N 35°21' E 139°49'0 0.1
2018-Jul-14 07:30N 35°21' E 139°49'0 0.7
2018-Jul-14 07:00N 35°20' E 139°49'0 0.3
2018-Jul-14 06:31N 35°21' E 139°49'0 0.1
2018-Jul-14 06:00N 35°21' E 139°49'0 0.0
2018-Jul-14 05:30N 35°21' E 139°49'0 0.1
2018-Jul-14 05:01N 35°21' E 139°49'0 0.3
2018-Jul-14 04:30N 35°21' E 139°49'0 0.2
2018-Jul-14 04:00N 35°21' E 139°49'0 0.2
2018-Jul-14 03:30N 35°21' E 139°49'0 0.4
2018-Jul-14 03:00N 35°21' E 139°49'0 0.5
2018-Jul-14 02:30N 35°21' E 139°49'0 0.2
2018-Jul-14 02:00N 35°21' E 139°49'1 1.8
2018-Jul-14 01:30N 35°21' E 139°49'2 4.1
2018-Jul-14 01:00N 35°23' E 139°51'3 0.2
2018-Jul-13 10:14N 35°22' E 139°54'210.0
2018-Jul-13 10:00N 35°23' E 139°51'1 1.9
2018-Jul-13 09:30N 35°22' E 139°51'1 1.1
2018-Jul-13 09:00N 35°21' E 139°51'0 0.6
2018-Jul-13 08:30N 35°21' E 139°51'2 3.7
2018-Jul-13 08:00N 35°23' E 139°49'0 0.9
2018-Jul-13 07:30N 35°22' E 139°50'1 1.3
2018-Jul-13 07:00N 35°22' E 139°50'0 0.1
2018-Jul-13 06:30N 35°22' E 139°50'0 0.0
2018-Jul-13 05:59N 35°22' E 139°50'1 2.4
2018-Jul-13 05:30N 35°21' E 139°49'0 0.2
2018-Jul-13 05:00N 35°21' E 139°49'2 4.5
2018-Jul-13 04:30N 35°23' E 139°50'3 0.9
2018-Jul-13 01:35N 35°22' E 139°53'1 5.1
2018-Jul-13 01:27N 35°22' E 139°53'0 0.3
2018-Jul-13 01:00N 35°22' E 139°52'1 1.0
2018-Jul-13 00:29N 35°22' E 139°52'3 5.8
2018-Jul-13 00:00N 35°24' E 139°49'1 2.4
2018-Jul-12 23:30N 35°24' E 139°50'4 1.8
2018-Jul-12 21:31N 35°22' E 139°54'0 0.0
2018-Jul-12 21:15N 35°22' E 139°54'0 0.0
2018-Jul-12 15:58N 35°22' E 139°54'0 0.0
2018-Jul-12 15:20N 35°22' E 139°54'0 0.0
2018-Jul-12 14:07N 35°22' E 139°54'0 0.0
2018-Jul-12 13:57N 35°22' E 139°54'0 0.0
2018-Jul-12 12:58N 35°22' E 139°54'0 0.0
2018-Jul-12 06:12N 35°22' E 139°54'0 0.0
2018-Jul-12 05:58N 35°22' E 139°54'0 0.0
2018-Jul-12 05:21N 35°22' E 139°54'  
Track history (hours):
 
Tides and Currents Weather Stations Pressure Air Temp Water Temp Dewpoint Dewpoint Depression Visibility Wind Speed Wind Dir Waves Ship Positions

Hitomimaru

Last reported at 2018-Jul-22 05:13 UTC. Time now 2018-Jul-22 08:27 UTC.
Position N 35°22' E 139°54'.

Length 35 m; draft 3.9 m.

Type: Tug. MMSI: 431007965.

Date/timePositionNaut miles runAvg speedWind from/ knotsBaromVisibWave heightAir tempDewpointWater temp
2018-Jul-22 05:13N 35°22' E 139°54'1 5.6
2018-Jul-22 05:00N 35°22' E 139°53'3 6.7
2018-Jul-22 04:31N 35°21' E 139°49'0 0.6
2018-Jul-22 04:00N 35°20' E 139°49'0 0.3
2018-Jul-22 03:30N 35°20' E 139°49'0 0.0
2018-Jul-22 03:01N 35°20' E 139°49'0 0.1
2018-Jul-22 02:30N 35°20' E 139°49'0 0.6
2018-Jul-22 02:00N 35°21' E 139°49'0 0.1
2018-Jul-22 01:30N 35°21' E 139°49'0 0.5
2018-Jul-22 01:00N 35°20' E 139°49'0 0.5
2018-Jul-22 00:30N 35°20' E 139°49'0 0.7
2018-Jul-22 00:00N 35°21' E 139°49'0 0.5
2018-Jul-21 23:30N 35°20' E 139°49'0 0.1
2018-Jul-21 23:00N 35°20' E 139°49'0 0.2
2018-Jul-21 22:31N 35°20' E 139°49'1 1.1
2018-Jul-21 22:00N 35°21' E 139°49'1 1.0
2018-Jul-21 21:30N 35°20' E 139°49'0 0.3
2018-Jul-21 21:00N 35°20' E 139°49'0 0.3
2018-Jul-21 20:30N 35°20' E 139°49'0 0.2
2018-Jul-21 20:00N 35°20' E 139°49'0 0.2
2018-Jul-21 19:30N 35°20' E 139°49'0 0.0
2018-Jul-21 19:00N 35°20' E 139°49'0 0.0
2018-Jul-21 18:30N 35°20' E 139°49'0 0.0
2018-Jul-21 18:01N 35°20' E 139°49'0 0.0
2018-Jul-21 17:30N 35°20' E 139°49'0 0.0
2018-Jul-21 17:01N 35°20' E 139°49'0 0.0
2018-Jul-21 16:30N 35°20' E 139°49'0 0.0
2018-Jul-21 16:01N 35°20' E 139°49'0 0.0
2018-Jul-21 15:31N 35°20' E 139°49'0 0.0
2018-Jul-21 15:01N 35°20' E 139°49'0 0.0
2018-Jul-21 14:30N 35°20' E 139°49'0 0.0
2018-Jul-21 13:30N 35°20' E 139°49'0 0.0
2018-Jul-21 13:01N 35°20' E 139°49'0 0.1
2018-Jul-21 12:30N 35°20' E 139°49'0 0.2
2018-Jul-21 12:00N 35°20' E 139°49'0 0.5
2018-Jul-21 11:31N 35°20' E 139°49'0 0.1
2018-Jul-21 11:00N 35°20' E 139°49'0 0.2
2018-Jul-21 10:30N 35°20' E 139°49'0 0.4
2018-Jul-21 10:00N 35°20' E 139°49'0 0.3
2018-Jul-21 09:30N 35°20' E 139°49'0 0.0
2018-Jul-21 09:00N 35°20' E 139°49'0 0.2
2018-Jul-21 08:30N 35°20' E 139°49'0 0.3
2018-Jul-21 08:01N 35°20' E 139°49'0 0.2
2018-Jul-21 07:30N 35°20' E 139°49'0 0.2
2018-Jul-21 07:00N 35°20' E 139°49'0 0.2
2018-Jul-21 06:30N 35°20' E 139°49'1 1.1
2018-Jul-21 06:00N 35°21' E 139°49'0 1.0
2018-Jul-21 05:30N 35°20' E 139°49'0 0.1
2018-Jul-21 05:00N 35°20' E 139°49'0 0.2
2018-Jul-21 04:30N 35°20' E 139°49'0 0.5
2018-Jul-21 04:00N 35°20' E 139°49'0 0.2
2018-Jul-21 03:30N 35°20' E 139°49'0 0.5
2018-Jul-21 03:00N 35°20' E 139°49'1 2.9
2018-Jul-21 02:30N 35°22' E 139°49'4 1.1
2018-Jul-20 22:40N 35°22' E 139°54'0 0.3
2018-Jul-20 22:30N 35°22' E 139°54'0 0.0
2018-Jul-20 22:00N 35°22' E 139°54'0 0.0
2018-Jul-20 21:30N 35°22' E 139°54'0 0.0
2018-Jul-20 20:59N 35°22' E 139°54'0 0.0
2018-Jul-20 20:30N 35°22' E 139°54'0 0.0
2018-Jul-20 20:01N 35°22' E 139°54'0 0.0
2018-Jul-20 19:30N 35°22' E 139°54'0 0.0
2018-Jul-20 18:59N 35°22' E 139°54'0 0.0
2018-Jul-20 18:30N 35°22' E 139°54'0 0.0
2018-Jul-20 18:01N 35°22' E 139°54'0 0.0
2018-Jul-20 17:29N 35°22' E 139°54'0 0.0
2018-Jul-20 17:01N 35°22' E 139°54'0 0.0
2018-Jul-20 16:30N 35°22' E 139°54'0 0.0
2018-Jul-20 16:00N 35°22' E 139°54'0 0.0
2018-Jul-20 15:30N 35°22' E 139°54'0 0.0
2018-Jul-20 14:59N 35°22' E 139°54'0 0.0
2018-Jul-20 14:28N 35°22' E 139°54'0 0.0
2018-Jul-20 13:59N 35°22' E 139°54'0 0.0
2018-Jul-20 13:30N 35°22' E 139°54'0 0.0
2018-Jul-20 12:55N 35°22' E 139°54'0 0.0
2018-Jul-20 12:30N 35°22' E 139°54'0 0.0
2018-Jul-20 12:00N 35°22' E 139°54'0 0.0
2018-Jul-20 11:30N 35°22' E 139°54'0 0.0
2018-Jul-20 10:59N 35°22' E 139°54'0 0.0
2018-Jul-20 10:27N 35°22' E 139°54'0 0.0
2018-Jul-20 09:56N 35°22' E 139°54'0 0.0
2018-Jul-20 09:30N 35°22' E 139°54'0 0.0
2018-Jul-20 08:59N 35°22' E 139°54'0 0.0
2018-Jul-20 08:29N 35°22' E 139°54'0 0.0
2018-Jul-20 08:00N 35°22' E 139°54'0 0.0
2018-Jul-20 07:30N 35°22' E 139°54'0 0.0
2018-Jul-20 04:02N 35°22' E 139°54'0 0.0
2018-Jul-20 03:36N 35°22' E 139°54'0 0.0
2018-Jul-20 03:24N 35°22' E 139°54'0 0.0
2018-Jul-20 02:59N 35°22' E 139°54'0 0.0
2018-Jul-20 02:29N 35°22' E 139°54'0 0.0
2018-Jul-20 01:56N 35°22' E 139°54'0 0.0
2018-Jul-20 01:30N 35°22' E 139°54'0 0.0
2018-Jul-20 00:59N 35°22' E 139°54'0 0.0
2018-Jul-20 00:29N 35°22' E 139°54'0 0.0
2018-Jul-20 00:00N 35°22' E 139°54'0 0.0
2018-Jul-19 23:31N 35°22' E 139°54'3 5.8
2018-Jul-19 23:00N 35°22' E 139°50'1 1.3
2018-Jul-19 22:30N 35°21' E 139°51'1 2.2
2018-Jul-19 22:00N 35°22' E 139°50'0 0.0
2018-Jul-19 21:30N 35°22' E 139°50'3 5.2
2018-Jul-19 20:54N 35°22' E 139°54'0 0.0
2018-Jul-19 20:30N 35°22' E 139°54'0 0.0
2018-Jul-19 19:59N 35°22' E 139°54'0 0.0
2018-Jul-19 16:40N 35°22' E 139°54'0 0.0
2018-Jul-19 16:26N 35°22' E 139°54'2 3.8
2018-Jul-19 16:00N 35°22' E 139°52'0 0.1
2018-Jul-19 15:30N 35°22' E 139°52'0 0.9
2018-Jul-19 14:58N 35°22' E 139°51'2 4.2
2018-Jul-19 14:30N 35°23' E 139°49'1 0.8
2018-Jul-19 13:30N 35°24' E 139°50'2 4.6
2018-Jul-19 13:01N 35°22' E 139°52'0 0.4
2018-Jul-19 12:30N 35°22' E 139°52'2 0.2
2018-Jul-19 04:23N 35°22' E 139°54'0 0.0
2018-Jul-19 03:58N 35°22' E 139°54'0 0.0
2018-Jul-19 03:30N 35°22' E 139°54'0 0.0
2018-Jul-18 15:57N 35°22' E 139°54'0 0.0
2018-Jul-18 15:28N 35°22' E 139°54'0 0.0
2018-Jul-18 05:17N 35°22' E 139°54'3 8.7
2018-Jul-18 04:59N 35°23' E 139°51'510.5
2018-Jul-18 04:30N 35°28' E 139°54'611.4
2018-Jul-18 04:00N 35°29' E 140°00'0 0.3
2018-Jul-18 03:17N 35°29' E 140°01'1 0.3
2018-Jul-18 00:55N 35°29' E 139°60'1 1.1
2018-Jul-18 00:11N 35°29' E 140°01'3 3.3
2018-Jul-17 23:25N 35°29' E 139°58'2 1.6
2018-Jul-17 22:13N 35°27' E 139°58'0 0.3
2018-Jul-17 21:14N 35°27' E 139°58'1 5.2
2018-Jul-17 20:58N 35°29' E 139°58'1 2.2
2018-Jul-17 20:30N 35°29' E 139°56'1 1.0
2018-Jul-17 19:56N 35°29' E 139°56'4 9.0
2018-Jul-17 19:30N 35°26' E 139°52'5 0.3
2018-Jul-17 03:56N 35°22' E 139°54'1 2.4
2018-Jul-17 03:29N 35°22' E 139°53'0 0.0
2018-Jul-16 23:30N 35°22' E 139°53'0 0.0
2018-Jul-16 19:54N 35°22' E 139°53'0 0.0
2018-Jul-16 19:27N 35°22' E 139°53'1 1.2
2018-Jul-16 19:00N 35°22' E 139°53'0 0.3
2018-Jul-16 18:30N 35°22' E 139°53'0 0.1
2018-Jul-16 15:17N 35°21' E 139°54'0 0.0
2018-Jul-16 14:45N 35°21' E 139°54'0 0.0
2018-Jul-16 13:34N 35°21' E 139°54'0 0.0
2018-Jul-16 13:26N 35°21' E 139°54'0 0.0
2018-Jul-16 13:00N 35°21' E 139°54'0 0.0
2018-Jul-16 12:25N 35°21' E 139°54'0 0.0
2018-Jul-16 12:00N 35°21' E 139°54'0 0.0
2018-Jul-16 11:29N 35°21' E 139°54'0 0.0
2018-Jul-16 11:00N 35°21' E 139°54'0 0.0
2018-Jul-16 10:31N 35°21' E 139°54'0 0.0
2018-Jul-16 10:01N 35°21' E 139°54'0 0.0
2018-Jul-16 09:30N 35°21' E 139°54'0 0.0
2018-Jul-16 09:00N 35°21' E 139°54'0 0.0
2018-Jul-16 08:30N 35°21' E 139°54'0 0.0
2018-Jul-16 08:00N 35°21' E 139°54'0 0.0
2018-Jul-16 07:14N 35°21' E 139°54'0 0.0
2018-Jul-16 06:48N 35°21' E 139°54'1 3.2
2018-Jul-16 06:29N 35°22' E 139°53'2 5.2
2018-Jul-16 06:00N 35°22' E 139°50'1 2.9
2018-Jul-16 05:30N 35°21' E 139°49'0 0.1
2018-Jul-16 05:00N 35°21' E 139°49'0 0.2
2018-Jul-16 04:30N 35°21' E 139°49'1 2.3
2018-Jul-16 04:00N 35°22' E 139°49'2 4.2
2018-Jul-16 03:30N 35°23' E 139°47'1 2.4
2018-Jul-16 03:00N 35°22' E 139°46'510.4
2018-Jul-16 02:30N 35°22' E 139°52'1 0.1
2018-Jul-15 16:15N 35°22' E 139°54'0 0.0
2018-Jul-15 15:59N 35°22' E 139°54'0 0.0
2018-Jul-15 06:45N 35°22' E 139°54'0 0.0
2018-Jul-15 06:10N 35°22' E 139°54'0 0.0
2018-Jul-15 05:55N 35°22' E 139°54'0 0.0
2018-Jul-15 05:25N 35°22' E 139°54'0 0.0
2018-Jul-15 05:00N 35°22' E 139°54'0 0.0
2018-Jul-15 04:30N 35°22' E 139°54'3 4.9
2018-Jul-15 03:58N 35°23' E 139°51'2 5.3
2018-Jul-15 03:30N 35°21' E 139°49'0 0.2
2018-Jul-15 03:00N 35°21' E 139°49'0 0.6
2018-Jul-15 02:30N 35°21' E 139°49'0 0.2
2018-Jul-15 02:00N 35°21' E 139°49'0 0.3
2018-Jul-15 01:30N 35°21' E 139°49'0 0.4
2018-Jul-15 01:00N 35°21' E 139°49'0 0.1
2018-Jul-15 00:30N 35°21' E 139°49'0 0.1
2018-Jul-15 00:00N 35°21' E 139°49'0 0.7
2018-Jul-14 23:30N 35°20' E 139°49'0 0.7
2018-Jul-14 23:01N 35°21' E 139°49'0 0.1
2018-Jul-14 22:30N 35°21' E 139°49'0 0.0
2018-Jul-14 22:00N 35°21' E 139°49'0 0.3
2018-Jul-14 21:30N 35°20' E 139°49'0 0.1
2018-Jul-14 21:00N 35°21' E 139°49'0 0.1
2018-Jul-14 20:30N 35°21' E 139°49'0 0.2
2018-Jul-14 19:59N 35°21' E 139°49'0 0.3
2018-Jul-14 19:30N 35°20' E 139°49'0 0.0
2018-Jul-14 19:00N 35°20' E 139°49'0 0.0
2018-Jul-14 18:30N 35°20' E 139°49'0 0.0
2018-Jul-14 18:00N 35°20' E 139°49'0 0.0
2018-Jul-14 17:30N 35°20' E 139°49'0 0.0
2018-Jul-14 17:00N 35°20' E 139°49'0 0.1
2018-Jul-14 16:30N 35°20' E 139°49'0 0.0
2018-Jul-14 15:59N 35°20' E 139°49'0 0.0
2018-Jul-14 15:30N 35°20' E 139°49'0 0.0
2018-Jul-14 15:00N 35°20' E 139°49'0 0.0
2018-Jul-14 14:30N 35°20' E 139°49'0 0.0
2018-Jul-14 13:30N 35°20' E 139°49'0 0.7
2018-Jul-14 13:00N 35°21' E 139°49'0 0.2
2018-Jul-14 12:30N 35°21' E 139°49'0 0.2
2018-Jul-14 12:00N 35°21' E 139°49'0 0.0
2018-Jul-14 11:30N 35°21' E 139°49'0 0.2
2018-Jul-14 11:00N 35°21' E 139°49'0 0.1
2018-Jul-14 10:30N 35°21' E 139°49'0 0.3
2018-Jul-14 10:00N 35°21' E 139°49'0 0.3
2018-Jul-14 09:30N 35°20' E 139°49'0 0.2
2018-Jul-14 08:59N 35°20' E 139°49'0 0.7
2018-Jul-14 08:30N 35°21' E 139°49'0 0.2
2018-Jul-14 08:00N 35°21' E 139°49'0 0.1
2018-Jul-14 07:30N 35°21' E 139°49'0 0.7
2018-Jul-14 07:00N 35°20' E 139°49'0 0.3
2018-Jul-14 06:31N 35°21' E 139°49'0 0.1
2018-Jul-14 06:00N 35°21' E 139°49'0 0.0
2018-Jul-14 05:30N 35°21' E 139°49'0 0.1
2018-Jul-14 05:01N 35°21' E 139°49'0 0.3
2018-Jul-14 04:30N 35°21' E 139°49'0 0.2
2018-Jul-14 04:00N 35°21' E 139°49'0 0.2
2018-Jul-14 03:30N 35°21' E 139°49'0 0.4
2018-Jul-14 03:00N 35°21' E 139°49'0 0.5
2018-Jul-14 02:30N 35°21' E 139°49'0 0.2
2018-Jul-14 02:00N 35°21' E 139°49'1 1.8
2018-Jul-14 01:30N 35°21' E 139°49'2 4.1
2018-Jul-14 01:00N 35°23' E 139°51'3 0.2
2018-Jul-13 10:14N 35°22' E 139°54'210.0
2018-Jul-13 10:00N 35°23' E 139°51'1 1.9
2018-Jul-13 09:30N 35°22' E 139°51'1 1.1
2018-Jul-13 09:00N 35°21' E 139°51'0 0.6
2018-Jul-13 08:30N 35°21' E 139°51'2 3.7
2018-Jul-13 08:00N 35°23' E 139°49'0 0.9
2018-Jul-13 07:30N 35°22' E 139°50'1 1.3
2018-Jul-13 07:00N 35°22' E 139°50'0 0.1
2018-Jul-13 06:30N 35°22' E 139°50'0 0.0
2018-Jul-13 05:59N 35°22' E 139°50'1 2.4
2018-Jul-13 05:30N 35°21' E 139°49'0 0.2
2018-Jul-13 05:00N 35°21' E 139°49'2 4.5
2018-Jul-13 04:30N 35°23' E 139°50'3 0.9
2018-Jul-13 01:35N 35°22' E 139°53'1 5.1
2018-Jul-13 01:27N 35°22' E 139°53'0 0.3
2018-Jul-13 01:00N 35°22' E 139°52'1 1.0
2018-Jul-13 00:29N 35°22' E 139°52'3 5.8
2018-Jul-13 00:00N 35°24' E 139°49'1 2.4
2018-Jul-12 23:30N 35°24' E 139°50'4 1.8
2018-Jul-12 21:31N 35°22' E 139°54'0 0.0
2018-Jul-12 21:15N 35°22' E 139°54'0 0.0
2018-Jul-12 15:58N 35°22' E 139°54'0 0.0
2018-Jul-12 15:20N 35°22' E 139°54'0 0.0
2018-Jul-12 14:07N 35°22' E 139°54'0 0.0
2018-Jul-12 13:57N 35°22' E 139°54'0 0.0
2018-Jul-12 12:58N 35°22' E 139°54'0 0.0
2018-Jul-12 06:12N 35°22' E 139°54'0 0.0
2018-Jul-12 05:58N 35°22' E 139°54'0 0.0
2018-Jul-12 05:21N 35°22' E 139°54'  

Dump ship's entire track history